Terminal Aerodrome Forecast
Issued by NWS

Home | Current Version | Previous Version | Text Only | Print | Product List | Glossary On
Versions: 1 2 3 4 5 6 7 8 9 10 11 12 13 14 15 16 17 18 19 20 21
270
FTUS46 KSGX 012326
TAFSNA
TAF
KSNA 012326Z 0200/0224 22012KT P6SM FEW025
     FM020300 VRB05KT P6SM SCT020
     FM020800 VRB03KT P6SM BKN020
     FM021600 VRB03KT P6SM SCT025
     FM022000 23009KT P6SM FEW020=

USA.gov is the U.S. government's official web portal to all federal, state and local government web resources and services.